Time;durP1;ratioP1;P1;durP2;ratioP2;P2;SDS_P1;SDS_P2;PMS_P1;PMS_P2;Temp;Humidity;BMP_temperature;BMP_pressure;BME280_temperature;BME280_humidity;BME280_pressure;Samples;Min_cycle;Max_cycle;Signal;HPM_P1;HPM_P2
2021/10/04 00:01:26;;;;;;;;;;;;;;;13.48;81.59;96439.88;5075890;28;20400;-78
2021/10/04 00:03:52;;;;;;;;;;;;;;;13.46;81.47;96443.75;5076033;28;19974;-77
2021/10/04 00:06:18;;;;;;;;;;;;;;;13.45;81.58;96447.44;5075884;28;20347;-77
2021/10/04 00:08:43;;;;;;;;;;;;;;;13.45;81.68;96445.59;5076106;28;19991;-78
2021/10/04 00:11:09;;;;;;;;;;;;;;;13.44;81.74;96437.91;5075897;28;19977;-78
2021/10/04 00:13:35;;;;;;;;;;;;;;;13.43;81.84;96441.59;5075824;28;20007;-78
2021/10/04 00:16:01;;;;;;;;;;;;;;;13.41;81.96;96433.94;5075836;28;19964;-76
2021/10/04 00:18:27;;;;;;;;;;;;;;;13.40;81.51;96442.88;5075423;28;19995;-77
2021/10/04 00:20:53;;;;;;;;;;;;;;;13.38;81.05;96444.94;5076452;28;20398;-77
2021/10/04 00:23:19;;;;;;;;;;;;;;;13.36;80.61;96437.28;5075735;28;20013;-78
2021/10/04 00:25:45;;;;;;;;;;;;;;;13.35;80.55;96440.13;5075862;28;19957;-77
2021/10/04 00:28:11;;;;;;;;;;;;;;;13.32;80.25;96435.34;5075487;28;20410;-78
2021/10/04 00:30:37;;;;;;;;;;;;;;;13.27;80.34;96433.41;5074519;28;20400;-79
2021/10/04 00:33:03;;;;;;;;;;;;;;;13.27;80.63;96438.66;5075989;28;19965;-76
2021/10/04 00:35:29;;;;;;;;;;;;;;;13.26;80.79;96446.78;5075563;28;20019;-77
2021/10/04 00:37:55;;;;;;;;;;;;;;;13.27;80.86;96456.28;5075445;28;20043;-79
2021/10/04 00:40:26;;;;;;;;;;;;;;;13.25;79.97;96456.53;5075310;28;19962;-76
2021/10/04 00:42:52;;;;;;;;;;;;;;;13.22;78.06;96451.72;5075451;28;19952;-77
2021/10/04 00:45:18;;;;;;;;;;;;;;;13.18;77.07;96461.13;5075128;28;19969;-78
2021/10/04 00:47:44;;;;;;;;;;;;;;;13.13;77.21;96461.03;5075918;28;19959;-78
2021/10/04 00:50:11;;;;;;;;;;;;;;;13.08;76.96;96453.84;5074826;28;20041;-77
2021/10/04 00:52:37;;;;;;;;;;;;;;;13.06;78.08;96447.19;5075432;28;20423;-77
2021/10/04 00:55:04;;;;;;;;;;;;;;;13.04;78.11;96439.53;5075008;28;19971;-76
2021/10/04 00:57:30;;;;;;;;;;;;;;;13.05;78.67;96437.69;5075041;28;19973;-76
2021/10/04 00:59:56;;;;;;;;;;;;;;;13.05;79.09;96451.66;5075118;28;19963;-76
2021/10/04 01:02:22;;;;;;;;;;;;;;;13.04;79.57;96450.06;5075224;28;19962;-77
2021/10/04 01:04:48;;;;;;;;;;;;;;;13.05;79.43;96446.38;5074412;28;19962;-76
2021/10/04 01:07:14;;;;;;;;;;;;;;;13.04;79.98;96449.25;5075163;28;19961;-76
2021/10/04 01:09:40;;;;;;;;;;;;;;;13.04;80.30;96460.59;5074415;28;19963;-78
2021/10/04 01:12:06;;;;;;;;;;;;;;;13.04;80.30;96455.34;5074790;28;20065;-78
2021/10/04 01:14:32;;;;;;;;;;;;;;;13.03;80.26;96443.19;5074643;28;19967;-76
2021/10/04 01:16:58;;;;;;;;;;;;;;;13.02;80.24;96448.69;5074385;28;19976;-77
2021/10/04 01:19:24;;;;;;;;;;;;;;;12.99;80.38;96456.00;5074689;28;20008;-77
2021/10/04 01:21:50;;;;;;;;;;;;;;;12.99;80.32;96452.59;5074369;28;19965;-79
2021/10/04 01:24:17;;;;;;;;;;;;;;;12.96;80.04;96464.38;5074427;28;20443;-77
2021/10/04 01:26:43;;;;;;;;;;;;;;;12.91;78.84;96466.09;5074329;28;19960;-77
2021/10/04 01:29:09;;;;;;;;;;;;;;;12.89;80.29;96462.91;5074393;28;19958;-78
2021/10/04 01:31:35;;;;;;;;;;;;;;;12.93;79.95;96464.03;5074384;28;19961;-77
2021/10/04 01:34:04;;;;;;;;;;;;;;;12.93;79.60;96472.72;5074179;28;20012;-78
2021/10/04 01:36:30;;;;;;;;;;;;;;;12.93;79.72;96464.84;5074728;28;19959;-79
2021/10/04 01:38:56;;;;;;;;;;;;;;;12.94;79.85;96463.03;5074218;28;19976;-78
2021/10/04 01:41:23;;;;;;;;;;;;;;;12.93;79.83;96466.69;5074036;28;19955;-78
2021/10/04 01:43:50;;;;;;;;;;;;;;;12.93;80.05;96469.31;5074046;28;19958;-78
2021/10/04 01:46:16;;;;;;;;;;;;;;;12.91;79.45;96472.16;5073930;28;19965;-78
2021/10/04 01:48:41;;;;;;;;;;;;;;;12.88;79.87;96467.38;5074340;28;19961;-78
2021/10/04 01:51:07;;;;;;;;;;;;;;;12.89;80.25;96481.31;5074179;28;20337;-77
2021/10/04 01:53:33;;;;;;;;;;;;;;;12.86;80.32;96476.53;5073978;28;19969;-77
2021/10/04 01:56:01;;;;;;;;;;;;;;;12.82;80.25;96480.66;5074012;28;20055;-77
2021/10/04 01:58:27;;;;;;;;;;;;;;;12.80;81.08;96483.53;5073795;28;19975;-76
2021/10/04 02:00:53;;;;;;;;;;;;;;;12.78;81.15;96504.00;5073909;28;20458;-76
2021/10/04 02:03:19;;;;;;;;;;;;;;;12.74;81.06;96497.59;5074079;28;19956;-76
2021/10/04 02:05:46;;;;;;;;;;;;;;;12.72;81.44;96492.56;5072567;28;19966;-76
2021/10/04 02:08:11;;;;;;;;;;;;;;;12.69;82.67;96498.28;5073739;28;20307;-77
2021/10/04 02:10:39;;;;;;;;;;;;;;;12.64;82.14;96500.81;5073793;28;20043;-76
2021/10/04 02:13:06;;;;;;;;;;;;;;;12.63;82.56;96503.66;5073824;28;19951;-76
2021/10/04 02:15:32;;;;;;;;;;;;;;;12.62;83.49;96491.53;5073942;28;19964;-76
2021/10/04 02:17:58;;;;;;;;;;;;;;;12.61;83.31;96495.22;5073797;28;19968;-76
2021/10/04 02:20:26;;;;;;;;;;;;;;;12.60;83.20;96499.69;5073749;28;19966;-76
2021/10/04 02:22:53;;;;;;;;;;;;;;;12.60;83.38;96504.94;5073491;28;20325;-75
2021/10/04 02:25:19;;;;;;;;;;;;;;;12.61;84.19;96480.22;5073296;28;19954;-76
2021/10/04 02:27:46;;;;;;;;;;;;;;;12.60;83.92;96476.00;5073607;28;19958;-76
2021/10/04 02:30:23;;;;;;;;;;;;;;;12.58;83.62;96492.00;5073562;28;20336;-76
2021/10/04 02:32:49;;;;;;;;;;;;;;;12.59;83.86;96493.59;5073773;28;20450;-75
2021/10/04 02:35:15;;;;;;;;;;;;;;;12.58;84.09;96494.63;5073338;28;20399;-76
2021/10/04 02:37:41;;;;;;;;;;;;;;;12.59;83.87;96493.59;5073206;28;19974;-76
2021/10/04 02:40:08;;;;;;;;;;;;;;;12.58;84.45;96496.47;5073460;28;20298;-75
2021/10/04 02:42:34;;;;;;;;;;;;;;;12.57;84.52;96506.16;5073103;28;19967;-75
2021/10/04 02:45:00;;;;;;;;;;;;;;;12.57;84.71;96502.75;5073008;28;19956;-75
2021/10/04 02:47:26;;;;;;;;;;;;;;;12.54;85.05;96472.44;5073263;28;19958;-76
2021/10/04 02:49:52;;;;;;;;;;;;;;;12.50;84.93;96457.34;5073507;28;19997;-76
2021/10/04 02:52:18;;;;;;;;;;;;;;;12.47;85.25;96461.22;5073749;28;19964;-76
2021/10/04 02:54:44;;;;;;;;;;;;;;;12.45;85.23;96468.56;5073220;28;19969;-76
2021/10/04 02:57:11;;;;;;;;;;;;;;;12.39;85.23;96478.16;5073007;28;20451;-76
2021/10/04 02:59:37;;;;;;;;;;;;;;;12.37;85.16;96482.84;5073269;28;19966;-75
2021/10/04 03:02:03;;;;;;;;;;;;;;;12.37;85.54;96479.44;5073614;28;19960;-76
2021/10/04 03:04:29;;;;;;;;;;;;;;;12.36;85.51;96477.81;5073194;28;20306;-76
2021/10/04 03:06:55;;;;;;;;;;;;;;;12.31;85.12;96486.38;5073005;28;19960;-77
2021/10/04 03:09:21;;;;;;;;;;;;;;;12.27;85.79;96490.50;5073141;28;20405;-76
2021/10/04 03:11:46;;;;;;;;;;;;;;;12.28;85.66;96494.72;5073033;28;19954;-76
2021/10/04 03:14:12;;;;;;;;;;;;;;;12.28;85.76;96483.41;5073469;28;19958;-76
2021/10/04 03:16:38;;;;;;;;;;;;;;;12.29;85.51;96483.19;5072975;28;19961;-77
2021/10/04 03:19:04;;;;;;;;;;;;;;;12.25;86.14;96486.50;5072771;28;20069;-77
2021/10/04 03:21:30;;;;;;;;;;;;;;;12.18;86.14;96500.56;5072989;28;20320;-77
2021/10/04 03:23:56;;;;;;;;;;;;;;;12.15;86.47;96501.00;5072941;28;20398;-76
2021/10/04 03:26:22;;;;;;;;;;;;;;;12.16;86.87;96509.69;5073846;28;20342;-76
2021/10/04 03:28:48;;;;;;;;;;;;;;;12.16;86.77;96513.13;5076756;28;20003;-76
2021/10/04 03:31:14;;;;;;;;;;;;;;;12.14;86.65;96506.50;5076515;28;19956;-76
2021/10/04 03:33:39;;;;;;;;;;;;;;;12.09;87.64;96498.47;5076708;28;19996;-77
2021/10/04 03:36:05;;;;;;;;;;;;;;;12.05;87.55;96499.94;5076459;28;19958;-76
2021/10/04 03:38:31;;;;;;;;;;;;;;;12.01;87.72;96509.31;5076361;28;19975;-76
2021/10/04 03:40:57;;;;;;;;;;;;;;;12.01;87.84;96515.38;5076383;28;19953;-76
2021/10/04 03:43:24;;;;;;;;;;;;;;;12.03;87.78;96509.88;5076402;28;20429;-75
2021/10/04 03:45:50;;;;;;;;;;;;;;;12.07;88.12;96518.91;5076690;28;19974;-76
2021/10/04 03:48:16;;;;;;;;;;;;;;;12.10;87.77;96518.50;5076163;28;20421;-76
2021/10/04 03:50:42;;;;;;;;;;;;;;;12.11;88.27;96520.88;5076379;28;19986;-76
2021/10/04 03:53:08;;;;;;;;;;;;;;;12.11;88.03;96520.88;5076109;28;20036;-76
2021/10/04 03:55:34;;;;;;;;;;;;;;;12.11;87.66;96526.13;5076018;28;20024;-76
2021/10/04 03:58:00;;;;;;;;;;;;;;;12.14;87.88;96519.63;5076268;28;19971;-76
2021/10/04 04:00:26;;;;;;;;;;;;;;;12.15;88.67;96513.34;5076175;28;19958;-76
2021/10/04 04:02:52;;;;;;;;;;;;;;;12.15;87.86;96516.75;5075877;28;19956;-76
2021/10/04 04:05:18;;;;;;;;;;;;;;;12.13;88.34;96512.75;5076021;28;19964;-76
2021/10/04 04:07:44;;;;;;;;;;;;;;;12.09;87.67;96525.56;5076218;28;19969;-76
2021/10/04 04:10:11;;;;;;;;;;;;;;;12.12;87.90;96542.72;5076515;28;19964;-77
2021/10/04 04:12:38;;;;;;;;;;;;;;;12.14;88.14;96538.03;5075820;28;19962;-76
2021/10/04 04:15:04;;;;;;;;;;;;;;;12.16;88.03;96530.72;5075732;28;19958;-76
2021/10/04 04:17:30;;;;;;;;;;;;;;;12.15;87.87;96522.03;5075563;28;20438;-77
2021/10/04 04:19:56;;;;;;;;;;;;;;;12.17;89.05;96519.97;5075981;28;19959;-76
2021/10/04 04:22:22;;;;;;;;;;;;;;;12.16;88.74;96517.59;5075706;28;20015;-75
2021/10/04 04:24:48;;;;;;;;;;;;;;;12.18;88.73;96528.69;5075598;28;19987;-75
2021/10/04 04:27:14;;;;;;;;;;;;;;;12.19;88.43;96522.38;5076204;28;20413;-75
2021/10/04 04:29:40;;;;;;;;;;;;;;;12.21;88.46;96519.53;5075566;28;19956;-75
2021/10/04 04:32:07;;;;;;;;;;;;;;;12.20;88.15;96508.22;5075332;28;19950;-75
2021/10/04 04:34:33;;;;;;;;;;;;;;;12.14;88.78;96517.00;5074119;28;19957;-75
2021/10/04 04:36:59;;;;;;;;;;;;;;;12.11;89.10;96534.00;5075858;28;19955;-75
2021/10/04 04:39:26;;;;;;;;;;;;;;;12.11;89.07;96535.84;5074431;28;19979;-75
2021/10/04 04:41:53;;;;;;;;;;;;;;;12.09;89.09;96528.19;5075344;28;19968;-75
2021/10/04 04:44:19;;;;;;;;;;;;;;;12.08;89.19;96539.72;5075320;28;20336;-75
2021/10/04 04:46:45;;;;;;;;;;;;;;;12.10;89.46;96544.78;5075159;28;19965;-75
2021/10/04 04:49:11;;;;;;;;;;;;;;;12.11;89.10;96556.88;5075263;28;19959;-75
2021/10/04 04:51:37;;;;;;;;;;;;;;;12.09;89.21;96559.72;5074954;28;20068;-75
2021/10/04 04:54:03;;;;;;;;;;;;;;;12.08;89.08;96562.59;5075064;28;19951;-75
2021/10/04 04:56:29;;;;;;;;;;;;;;;12.09;89.59;96569.44;5075139;28;19991;-75
2021/10/04 04:58:55;;;;;;;;;;;;;;;12.10;89.59;96568.44;5075026;28;20022;-75
2021/10/04 05:01:21;;;;;;;;;;;;;;;12.11;89.73;96552.41;5074954;28;20472;-75
2021/10/04 05:03:49;;;;;;;;;;;;;;;12.09;89.27;96551.84;5073949;28;21451;-75
2021/10/04 05:06:14;;;;;;;;;;;;;;;12.05;89.48;96555.94;5074827;28;20051;-75
2021/10/04 05:08:41;;;;;;;;;;;;;;;12.00;89.47;96566.34;5074898;28;19973;-75
2021/10/04 05:11:06;;;;;;;;;;;;;;;11.96;90.45;96570.44;5075106;28;19959;-75
2021/10/04 05:13:33;;;;;;;;;;;;;;;11.94;90.70;96583.00;5074856;28;20056;-75
2021/10/04 05:15:59;;;;;;;;;;;;;;;11.95;90.69;96590.66;5074484;28;19965;-76
2021/10/04 05:18:25;;;;;;;;;;;;;;;11.98;90.85;96590.22;5075133;28;20502;-75
2021/10/04 05:20:51;;;;;;;;;;;;;;;12.00;90.81;96594.44;5074813;28;19962;-76
2021/10/04 05:23:17;;;;;;;;;;;;;;;12.03;90.96;96594.00;5074467;28;20410;-76
2021/10/04 05:25:44;;;;;;;;;;;;;;;12.05;90.60;96611.13;5074703;28;20014;-76
2021/10/04 05:28:09;;;;;;;;;;;;;;;12.08;90.42;96610.72;5074351;28;19953;-75
2021/10/04 05:30:35;;;;;;;;;;;;;;;12.11;90.61;96626.03;5072825;28;20374;-76
2021/10/04 05:33:02;;;;;;;;;;;;;;;12.11;89.89;96617.34;5074556;28;20052;-75
2021/10/04 05:35:27;;;;;;;;;;;;;;;12.12;90.54;96621.59;5073751;28;19956;-76
2021/10/04 05:37:53;;;;;;;;;;;;;;;12.09;89.59;96617.56;5074271;28;19974;-77
2021/10/04 05:40:20;;;;;;;;;;;;;;;12.06;88.97;96615.38;5074090;28;19963;-74
2021/10/04 05:42:46;;;;;;;;;;;;;;;12.04;88.81;96616.63;5074358;28;19963;-77
2021/10/04 05:45:13;;;;;;;;;;;;;;;12.04;88.79;96620.06;5073996;28;20017;-76
2021/10/04 05:47:39;;;;;;;;;;;;;;;12.03;88.86;96617.66;5074087;28;19948;-76
2021/10/04 05:50:06;;;;;;;;;;;;;;;12.03;88.28;96612.38;5073790;28;19987;-76
2021/10/04 05:52:32;;;;;;;;;;;;;;;12.04;88.57;96614.81;5074235;28;19962;-76
2021/10/04 05:54:57;;;;;;;;;;;;;;;12.06;88.29;96617.22;5074081;28;19976;-75
2021/10/04 05:57:23;;;;;;;;;;;;;;;12.05;87.59;96612.97;5073955;28;19976;-75
2021/10/04 05:59:49;;;;;;;;;;;;;;;12.04;87.04;96609.56;5072649;28;20031;-75
2021/10/04 06:02:15;;;;;;;;;;;;;;;12.03;86.90;96607.94;5073693;28;19971;-75
2021/10/04 06:04:41;;;;;;;;;;;;;;;12.02;87.12;96611.59;5073860;28;19949;-75
2021/10/04 06:07:07;;;;;;;;;;;;;;;12.01;86.72;96615.25;5074202;28;20064;-76
2021/10/04 06:09:33;;;;;;;;;;;;;;;12.01;86.74;96617.06;5073990;28;20465;-74
2021/10/04 06:11:58;;;;;;;;;;;;;;;11.98;86.85;96624.38;5074031;28;19947;-76
2021/10/04 06:14:24;;;;;;;;;;;;;;;11.98;87.09;96632.25;5073771;28;20002;-75
2021/10/04 06:16:50;;;;;;;;;;;;;;;11.98;86.91;96626.22;5074307;28;20356;-74
2021/10/04 06:19:16;;;;;;;;;;;;;;;11.97;86.76;96627.25;5073476;28;20371;-76
2021/10/04 06:21:42;;;;;;;;;;;;;;;11.96;86.59;96628.25;5073743;28;20369;-76
2021/10/04 06:24:08;;;;;;;;;;;;;;;11.94;86.18;96623.22;5073635;28;19991;-76
2021/10/04 06:26:34;;;;;;;;;;;;;;;11.93;86.78;96631.34;5071749;28;20411;-75
2021/10/04 06:29:00;;;;;;;;;;;;;;;11.90;86.77;96629.94;5073619;28;20066;-74
2021/10/04 06:31:26;;;;;;;;;;;;;;;11.90;86.47;96639.66;5072383;28;20315;-74
2021/10/04 06:33:52;;;;;;;;;;;;;;;11.88;86.79;96634.59;5073640;28;19963;-75
2021/10/04 06:36:18;;;;;;;;;;;;;;;11.87;86.64;96651.38;5073478;28;19967;-75
2021/10/04 06:38:44;;;;;;;;;;;;;;;11.87;86.70;96654.00;5073374;28;20015;-75
2021/10/04 06:41:10;;;;;;;;;;;;;;;11.88;86.68;96660.88;5073724;28;20144;-75
2021/10/04 06:43:36;;;;;;;;;;;;;;;11.87;86.41;96656.63;5073462;28;19972;-75
2021/10/04 06:46:07;;;;;;;;;;;;;;;11.87;86.56;96666.34;5074159;28;19963;-75
2021/10/04 06:48:37;;;;;;;;;;;;;;;11.86;86.93;96670.78;5073547;28;19954;-74
2021/10/04 06:51:03;;;;;;;;;;;;;;;11.86;86.95;96665.53;5073253;28;19974;-75
2021/10/04 06:53:29;;;;;;;;;;;;;;;11.87;87.56;96677.66;5071814;28;19966;-76
2021/10/04 06:55:55;;;;;;;;;;;;;;;11.88;87.47;96686.34;5073096;28;19981;-74
2021/10/04 06:58:21;;;;;;;;;;;;;;;11.87;87.23;96692.63;5073457;28;20070;-75
2021/10/04 07:00:47;;;;;;;;;;;;;;;11.86;86.97;96701.53;5073151;28;19952;-75
2021/10/04 07:03:13;;;;;;;;;;;;;;;11.86;86.81;96699.69;5077428;28;19958;-76
2021/10/04 07:05:39;;;;;;;;;;;;;;;11.87;87.63;96703.94;5077085;28;19960;-75
2021/10/04 07:08:05;;;;;;;;;;;;;;;11.89;87.13;96716.91;5077371;28;19961;-76
2021/10/04 07:10:31;;;;;;;;;;;;;;;11.92;87.31;96719.06;5077112;28;20371;-77
2021/10/04 07:12:58;;;;;;;;;;;;;;;11.92;87.61;96705.94;5076994;28;19959;-75
2021/10/04 07:15:24;;;;;;;;;;;;;;;11.94;87.56;96715.19;5076831;28;19964;-76
2021/10/04 07:17:50;;;;;;;;;;;;;;;11.95;87.19;96721.28;5076803;28;19957;-76
2021/10/04 07:20:16;;;;;;;;;;;;;;;11.94;87.62;96723.09;5077166;28;19954;-75
2021/10/04 07:22:43;;;;;;;;;;;;;;;11.96;87.68;96722.88;5076972;28;20422;-77
2021/10/04 07:25:09;;;;;;;;;;;;;;;11.95;86.95;96713.41;5076722;28;19955;-77
2021/10/04 07:27:35;;;;;;;;;;;;;;;11.95;87.30;96722.06;5076701;28;19947;-76
2021/10/04 07:30:02;;;;;;;;;;;;;;;11.98;86.66;96733.97;5076854;28;19964;-77
2021/10/04 07:32:28;;;;;;;;;;;;;;;11.98;86.58;96742.66;5076974;28;19952;-77
2021/10/04 07:34:54;;;;;;;;;;;;;;;12.00;86.83;96744.28;5076626;28;19954;-76
2021/10/04 07:37:20;;;;;;;;;;;;;;;11.99;86.64;96743.47;5076620;28;19968;-76
2021/10/04 07:39:46;;;;;;;;;;;;;;;11.98;87.01;96741.84;5077293;28;20005;-76
2021/10/04 07:42:12;;;;;;;;;;;;;;;11.97;87.39;96746.31;5076838;28;20449;-76
2021/10/04 07:44:38;;;;;;;;;;;;;;;11.98;87.20;96765.50;5075140;28;19960;-76
2021/10/04 07:47:04;;;;;;;;;;;;;;;11.99;87.89;96769.75;5076661;28;20005;-75
2021/10/04 07:49:30;;;;;;;;;;;;;;;11.98;86.81;96774.19;5076495;28;20395;-75
2021/10/04 07:51:58;;;;;;;;;;;;;;;11.94;87.47;96767.75;5074779;28;19982;-75
2021/10/04 07:54:24;;;;;;;;;;;;;;;11.95;86.68;96758.06;5076558;28;19968;-74
2021/10/04 07:56:50;;;;;;;;;;;;;;;11.98;87.00;96757.63;5076453;28;19956;-74
2021/10/04 07:59:16;;;;;;;;;;;;;;;11.99;87.97;96756.63;5076266;28;19972;-74
2021/10/04 08:01:42;;;;;;;;;;;;;;;12.03;88.09;96759.59;5076424;28;19966;-74
2021/10/04 08:04:08;;;;;;;;;;;;;;;11.99;86.97;96769.75;5076370;28;19986;-74
2021/10/04 08:06:34;;;;;;;;;;;;;;;11.98;87.72;96778.66;5076041;28;19963;-74
2021/10/04 08:09:00;;;;;;;;;;;;;;;12.01;87.65;96777.41;5076527;28;19957;-74
2021/10/04 08:11:26;;;;;;;;;;;;;;;12.03;87.94;96778.78;5075866;28;20343;-75
2021/10/04 08:13:52;;;;;;;;;;;;;;;12.04;88.47;96790.91;5076014;28;20331;-75
2021/10/04 08:16:21;;;;;;;;;;;;;;;12.05;87.90;96796.97;5075380;28;20341;-75
2021/10/04 08:18:48;;;;;;;;;;;;;;;12.04;87.10;96804.06;5075789;28;19969;-75
2021/10/04 08:21:17;;;;;;;;;;;;;;;12.06;87.35;96809.13;5075891;28;19966;-75
2021/10/04 08:23:44;;;;;;;;;;;;;;;12.03;88.22;96791.94;5075973;28;19961;-75
2021/10/04 08:26:10;;;;;;;;;;;;;;;12.03;86.83;96793.75;5076155;28;19951;-75
2021/10/04 08:28:36;;;;;;;;;;;;;;;12.01;87.52;96804.50;5075679;28;20434;-75
2021/10/04 08:31:02;;;;;;;;;;;;;;;12.03;87.61;96799.03;5075642;28;19960;-75
2021/10/04 08:33:28;;;;;;;;;;;;;;;12.04;88.54;96811.16;5075558;28;20447;-75
2021/10/04 08:35:55;;;;;;;;;;;;;;;12.05;87.95;96821.44;5075354;28;19964;-75
2021/10/04 08:38:21;;;;;;;;;;;;;;;12.05;87.80;96831.94;5075907;28;19990;-77
2021/10/04 08:40:47;;;;;;;;;;;;;;;12.05;88.01;96841.66;5075653;28;19949;-75
2021/10/04 08:43:13;;;;;;;;;;;;;;;12.05;87.88;96831.94;5075396;28;20393;-74
2021/10/04 08:45:40;;;;;;;;;;;;;;;12.06;88.18;96833.56;5075573;28;19961;-75
2021/10/04 08:48:06;;;;;;;;;;;;;;;12.08;87.94;96818.38;5075134;28;19953;-75
2021/10/04 08:50:33;;;;;;;;;;;;;;;12.11;87.93;96806.63;5075375;28;19980;-75
2021/10/04 08:53:00;;;;;;;;;;;;;;;12.13;87.63;96813.25;5075070;28;20415;-75
2021/10/04 08:55:26;;;;;;;;;;;;;;;12.13;87.62;96818.53;5075310;28;19963;-75
2021/10/04 08:57:52;;;;;;;;;;;;;;;12.13;87.21;96815.09;5074865;28;19960;-75
2021/10/04 09:00:18;;;;;;;;;;;;;;;12.14;87.38;96816.72;5075092;28;20086;-75
2021/10/04 09:02:45;;;;;;;;;;;;;;;12.14;86.78;96824.59;5075020;28;19953;-74
2021/10/04 09:05:23;;;;;;;;;;;;;;;12.13;87.28;96826.41;5074633;28;19967;-75
2021/10/04 09:07:50;;;;;;;;;;;;;;;12.14;87.55;96822.78;5074760;28;19951;-75
2021/10/04 09:10:18;;;;;;;;;;;;;;;12.14;86.30;96820.16;5075115;28;20441;-75
2021/10/04 09:12:46;;;;;;;;;;;;;;;12.16;87.06;96814.69;5074797;28;19954;-75
2021/10/04 09:15:32;;;;;;;;;;;;;;;12.17;87.71;96822.31;5075048;28;19956;-75
2021/10/04 09:17:59;;;;;;;;;;;;;;;12.22;87.66;96810.34;5062570;28;19949;-75
2021/10/04 09:20:30;;;;;;;;;;;;;;;12.22;87.88;96812.97;5074625;28;19985;-75
2021/10/04 09:22:56;;;;;;;;;;;;;;;12.17;87.83;96827.59;5073414;28;19976;-75
2021/10/04 09:25:23;;;;;;;;;;;;;;;12.13;87.56;96821.16;5074060;28;20044;-75
2021/10/04 09:27:49;;;;;;;;;;;;;;;12.05;88.04;96834.56;5074367;28;20334;-76
2021/10/04 09:30:23;;;;;;;;;;;;;;;12.02;88.92;96839.50;5074361;28;20059;-75
2021/10/04 09:32:52;;;;;;;;;;;;;;;12.01;89.41;96843.94;5074429;28;19963;-75
2021/10/04 09:35:28;;;;;;;;;;;;;;;12.05;89.72;96837.19;5074514;28;19950;-75
2021/10/04 09:38:13;;;;;;;;;;;;;;;12.08;89.89;96834.16;5074452;28;19956;-75
2021/10/04 09:40:43;;;;;;;;;;;;;;;12.11;89.36;96827.66;5074165;28;19954;-75
2021/10/04 09:43:21;;;;;;;;;;;;;;;12.12;88.76;96824.03;5074407;28;20324;-75
2021/10/04 09:45:57;;;;;;;;;;;;;;;12.11;88.69;96820.56;5074061;28;19979;-75
2021/10/04 09:48:22;;;;;;;;;;;;;;;12.12;88.84;96814.31;5073010;28;19951;-76
2021/10/04 09:50:48;;;;;;;;;;;;;;;12.13;88.95;96818.53;5074228;28;20323;-76
2021/10/04 09:53:15;;;;;;;;;;;;;;;12.14;89.52;96817.50;5073921;28;20399;-76
2021/10/04 09:55:43;;;;;;;;;;;;;;;12.12;89.12;96810.88;5074265;28;20032;-76
2021/10/04 09:58:15;;;;;;;;;;;;;;;12.10;89.21;96810.28;5074434;28;20430;-76
2021/10/04 10:00:43;;;;;;;;;;;;;;;12.07;89.08;96822.03;5073845;28;19951;-76
2021/10/04 10:03:10;;;;;;;;;;;;;;;12.05;90.22;96818.81;5074128;28;19959;-76
2021/10/04 10:05:37;;;;;;;;;;;;;;;12.08;90.68;96821.00;5074008;28;20047;-76
2021/10/04 10:08:04;;;;;;;;;;;;;;;12.13;90.49;96822.97;5073778;28;19948;-76
2021/10/04 10:10:30;;;;;;;;;;;;;;;12.19;90.15;96822.09;5073849;28;19962;-76
2021/10/04 10:12:56;;;;;;;;;;;;;;;12.23;88.69;96815.41;5073853;28;19962;-76
2021/10/04 10:15:24;;;;;;;;;;;;;;;12.23;88.47;96807.50;5073807;28;19968;-76
2021/10/04 10:17:53;;;;;;;;;;;;;;;12.22;88.78;96800.66;5073539;28;19959;-76
2021/10/04 10:20:21;;;;;;;;;;;;;;;12.21;89.22;96795.59;5073814;28;19978;-76
2021/10/04 10:22:49;;;;;;;;;;;;;;;12.18;89.40;96802.91;5073723;28;19966;-75
2021/10/04 10:25:29;;;;;;;;;;;;;;;12.23;90.60;96804.88;5073861;28;19964;-76
2021/10/04 10:27:54;;;;;;;;;;;;;;;12.27;90.29;96798.16;5073668;28;19962;-76
2021/10/04 10:30:23;;;;;;;;;;;;;;;12.26;88.88;96799.16;5073561;28;19960;-77
2021/10/04 10:32:49;;;;;;;;;;;;;;;12.24;88.51;96801.25;5073761;28;20285;-76
2021/10/04 10:35:15;;;;;;;;;;;;;;;12.24;87.46;96806.50;5073423;28;19957;-76
2021/10/04 10:37:46;;;;;;;;;;;;;;;12.18;88.98;96802.91;5072998;28;19969;-76
2021/10/04 10:40:16;;;;;;;;;;;;;;;12.19;89.61;96809.75;5073505;28;19974;-76
2021/10/04 10:42:58;;;;;;;;;;;;;;;12.20;89.19;96810.59;5073458;28;19957;-77
2021/10/04 10:45:25;;;;;;;;;;;;;;;12.21;88.87;96820.06;5072508;28;19959;-77
2021/10/04 10:47:52;;;;;;;;;;;;;;;12.23;89.29;96809.34;5073593;28;19961;-76
2021/10/04 10:50:17;;;;;;;;;;;;;;;12.24;88.80;96803.88;5073157;28;19986;-76
2021/10/04 10:53:07;;;;;;;;;;;;;;;12.28;89.37;96812.91;5072266;28;20421;-76
2021/10/04 10:55:38;;;;;;;;;;;;;;;12.34;89.27;96816.50;5068990;28;19972;-77
2021/10/04 10:58:06;;;;;;;;;;;;;;;12.39;88.90;96814.81;5073624;28;19966;-77
2021/10/04 11:00:35;;;;;;;;;;;;;;;12.58;92.16;96807.72;5072990;28;19973;-76
2021/10/04 11:03:11;;;;;;;;;;;;;;;12.83;89.43;96813.88;5073458;28;19954;-76
2021/10/04 11:05:37;;;;;;;;;;;;;;;12.86;85.82;96808.97;5073515;28;19956;-77
2021/10/04 11:08:04;;;;;;;;;;;;;;;12.78;86.07;96809.28;5073082;28;20389;-76
2021/10/04 11:10:30;;;;;;;;;;;;;;;12.77;87.01;96802.41;5073163;28;20513;-76
2021/10/04 11:13:09;;;;;;;;;;;;;;;12.75;86.42;96799.22;5073445;28;19961;-76
2021/10/04 11:15:36;;;;;;;;;;;;;;;12.70;83.24;96791.97;5059859;28;19959;-76
2021/10/04 11:18:02;;;;;;;;;;;;;;;12.53;83.15;96789.13;5073394;28;20324;-76
2021/10/04 11:20:28;;;;;;;;;;;;;;;12.50;84.30;96786.16;5073220;28;19988;-76
2021/10/04 11:23:03;;;;;;;;;;;;;;;12.45;84.52;96786.84;5073453;28;19965;-76
2021/10/04 11:25:30;;;;;;;;;;;;;;;12.40;84.72;96786.69;5073342;28;20413;-76
2021/10/04 11:27:56;;;;;;;;;;;;;;;12.42;86.91;96791.72;5071925;28;20433;-76
2021/10/04 11:30:22;;;;;;;;;;;;;;;12.40;85.19;96784.03;5073141;28;19961;-76
2021/10/04 11:33:07;;;;;;;;;;;;;;;12.44;86.47;96773.91;5073057;28;19954;-76
2021/10/04 11:35:34;;;;;;;;;;;;;;;12.53;87.10;96770.72;5062618;28;19976;-76
2021/10/04 11:38:06;;;;;;;;;;;;;;;12.63;86.46;96775.47;5073053;28;19959;-77
2021/10/04 11:40:32;;;;;;;;;;;;;;;12.69;86.12;96787.72;5057976;28;19970;-76
2021/10/04 11:43:03;;;;;;;;;;;;;;;12.73;85.55;96781.00;5072767;28;20431;-77
2021/10/04 11:45:29;;;;;;;;;;;;;;;12.79;87.22;96776.69;5073016;28;20314;-76
2021/10/04 11:47:55;;;;;;;;;;;;;;;12.88;86.12;96779.81;5074358;28;20013;-76
2021/10/04 11:50:21;;;;;;;;;;;;;;;12.97;87.09;96783.72;5076583;28;20456;-77
2021/10/04 11:52:48;;;;;;;;;;;;;;;13.02;84.59;96788.28;5077190;28;19960;-77
2021/10/04 11:55:15;;;;;;;;;;;;;;;12.98;80.57;96782.69;5076518;28;19962;-77
2021/10/04 11:57:41;;;;;;;;;;;;;;;12.89;82.26;96782.22;5076490;28;19968;-76
2021/10/04 12:00:09;;;;;;;;;;;;;;;12.89;84.42;96776.13;5076021;28;20425;-77
2021/10/04 12:02:40;;;;;;;;;;;;;;;12.86;81.32;96776.59;5076502;28;19962;-76
2021/10/04 12:05:10;;;;;;;;;;;;;;;12.75;80.17;96773.69;5076039;28;19961;-76
2021/10/04 12:07:35;;;;;;;;;;;;;;;12.75;82.08;96771.06;5076312;28;19954;-77
2021/10/04 12:10:03;;;;;;;;;;;;;;;12.75;82.73;96778.94;5076473;28;19985;-76
2021/10/04 12:12:36;;;;;;;;;;;;;;;12.76;83.47;96767.38;5076003;28;19955;-77
2021/10/04 12:15:03;;;;;;;;;;;;;;;12.79;83.92;96766.94;5076159;28;19957;-77
2021/10/04 12:17:34;;;;;;;;;;;;;;;12.83;83.34;96762.06;5075692;28;19953;-77
2021/10/04 12:20:00;;;;;;;;;;;;;;;12.89;83.49;96763.78;5076092;28;20352;-77
2021/10/04 12:22:30;;;;;;;;;;;;;;;12.96;83.67;96767.13;5076031;28;19966;-77
2021/10/04 12:24:56;;;;;;;;;;;;;;;13.01;83.91;96755.91;5075503;28;19958;-77
2021/10/04 12:27:22;;;;;;;;;;;;;;;13.07;83.32;96757.63;5074862;28;19967;-77
2021/10/04 12:29:58;;;;;;;;;;;;;;;13.14;83.60;96754.91;5075772;28;19978;-77
2021/10/04 12:32:31;;;;;;;;;;;;;;;13.14;84.25;96749.63;5076178;28;19951;-77
2021/10/04 12:35:00;;;;;;;;;;;;;;;13.16;83.29;96740.47;5075714;28;19955;-77
2021/10/04 12:37:27;;;;;;;;;;;;;;;13.12;81.43;96741.97;5075483;28;19961;-78
2021/10/04 12:39:53;;;;;;;;;;;;;;;13.17;83.18;96746.56;5075356;28;19975;-77
2021/10/04 12:42:22;;;;;;;;;;;;;;;13.18;83.04;96740.25;5075854;28;19967;-78
2021/10/04 12:44:48;;;;;;;;;;;;;;;13.19;82.61;96741.88;5075644;28;20360;-77
2021/10/04 12:47:15;;;;;;;;;;;;;;;13.23;83.49;96731.66;5075372;28;19956;-77